Time;durP1;ratioP1;P1;durP2;ratioP2;P2;SDS_P1;SDS_P2;PMS_P1;PMS_P2;Temp;Humidity;BMP_temperature;BMP_pressure;BME280_temperature;BME280_humidity;BME280_pressure;Samples;Min_cycle;Max_cycle;Signal;HPM_P1;HPM_P2
2023/01/03 00:00:21;;;;;;;50.97;27.75;;;;;;;;;;2038801;29;20075;-87
2023/01/03 00:01:21;;;;;;;;;;;;;;;;;;2039396;29;20182;-87
2023/01/03 00:02:22;;;;;;;45.88;24.42;;;;;;;;;;2038668;29;19911;-86
2023/01/03 00:03:22;;;;;;;;;;;;;;;;;;2039257;29;20034;-87
2023/01/03 00:04:22;;;;;;;44.22;24.42;;;;;;;;;;2046863;29;19921;-87
2023/01/03 00:05:22;;;;;;;;;;;;;;;;;;2039269;29;20067;-86
2023/01/03 00:06:35;;;;;;;42.55;24.50;;;;;;;;;;2038900;29;20362;-87
2023/01/03 00:07:35;;;;;;;47.95;26.92;;;;;;;;;;2032503;29;20126;-87
2023/01/03 00:08:35;;;;;;;;;;;;;;;;;;2039273;29;20498;-85
2023/01/03 00:09:36;;;;;;;42.00;24.48;;;;;;;;;;2038907;29;20382;-88
2023/01/03 00:10:36;;;;;;;;;;;;;;;;;;2039113;29;20090;-87
2023/01/03 00:12:57;;;;;;;45.85;26.20;;;;;;;;;;2047288;28;20031;-88
2023/01/03 00:13:57;;;;;;;;;;;;;;;;;;2039366;29;20118;-88
2023/01/03 00:14:58;;;;;;;51.10;25.88;;;;;;;;;;2038841;29;20317;-88
2023/01/03 00:15:59;;;;;;;52.10;28.98;;;;;;;;;;2038967;29;20027;-88
2023/01/03 00:17:01;;;;;;;;;;;;;;;;;;2047138;28;20042;-88
2023/01/03 00:18:01;;;;;;;;;;;;;;;;;;2047138;29;20473;-89
2023/01/03 00:19:07;;;;;;;43.63;21.48;;;;;;;;;;2039425;29;19914;-88
2023/01/03 00:20:09;;;;;;;53.53;29.52;;;;;;;;;;2039805;29;20051;-88
2023/01/03 00:21:10;;;;;;;55.53;31.40;;;;;;;;;;2047036;28;20031;-88
2023/01/03 00:22:11;;;;;;;;;;;;;;;;;;2047900;29;20086;-88
2023/01/03 00:23:11;;;;;;;58.33;30.63;;;;;;;;;;2038908;29;20053;-88
2023/01/03 00:24:12;;;;;;;;;;;;;;;;;;2039157;29;20460;-86
2023/01/03 00:25:13;;;;;;;57.55;30.20;;;;;;;;;;2046670;29;19915;-89
2023/01/03 00:26:14;;;;;;;;;;;;;;;;;;2039717;29;20054;-88
2023/01/03 00:27:15;;;;;;;54.63;30.13;;;;;;;;;;2049667;28;19915;-89
2023/01/03 00:28:15;;;;;;;;;;;;;;;;;;2049903;28;20041;-88
2023/01/03 00:29:16;;;;;;;63.43;28.83;;;;;;;;;;2049631;28;19915;-89
2023/01/03 00:30:16;;;;;;;;;;;;;;;;;;2032937;29;20099;-89
2023/01/03 00:31:17;;;;;;;66.37;31.20;;;;;;;;;;2031922;29;20370;-88
2023/01/03 00:32:17;;;;;;;;;;;;;;;;;;2039571;29;20070;-88
2023/01/03 00:33:17;;;;;;;57.28;29.42;;;;;;;;;;2046805;29;19910;-88
2023/01/03 00:34:18;;;;;;;;;;;;;;;;;;2031449;29;20440;-88
2023/01/03 00:35:18;;;;;;;53.97;27.45;;;;;;;;;;2038703;29;20002;-89
2023/01/03 00:36:19;;;;;;;62.05;33.80;;;;;;;;;;2038661;29;20427;-88
2023/01/03 00:37:19;;;;;;;;;;;;;;;;;;2039519;29;20055;-88
2023/01/03 00:38:20;;;;;;;53.07;28.43;;;;;;;;;;2047345;28;19973;-89
2023/01/03 00:39:20;;;;;;;;;;;;;;;;;;2047335;29;20127;-88
2023/01/03 00:40:20;;;;;;;57.57;27.60;;;;;;;;;;2039203;29;20397;-89
2023/01/03 00:41:21;;;;;;;;;;;;;;;;;;2039721;29;20036;-87
2023/01/03 00:42:21;;;;;;;50.05;28.98;;;;;;;;;;2047362;29;19910;-88
2023/01/03 00:43:27;;;;;;;;;;;;;;;;;;2043010;29;20032;-89
2023/01/03 00:44:28;;;;;;;48.83;26.20;;;;;;;;;;2035481;29;19930;-88
2023/01/03 00:45:28;;;;;;;;;;;;;;;;;;2043053;29;20031;-88
2023/01/03 00:46:29;;;;;;;47.00;25.77;;;;;;;;;;2043777;29;19915;-88
2023/01/03 00:47:29;;;;;;;;;;;;;;;;;;2057708;28;20034;-88
2023/01/03 00:48:31;;;;;;;45.03;25.13;;;;;;;;;;2058031;28;19906;-88
2023/01/03 00:49:31;;;;;;;63.33;33.38;;;;;;;;;;2047397;28;20066;-88
2023/01/03 00:50:31;;;;;;;;;;;;;;;;;;2032454;29;20103;-88
2023/01/03 00:51:34;;;;;;;49.65;24.88;;;;;;;;;;1699389;29;10000587;-88
2023/01/03 00:52:35;;;;;;;56.38;30.85;;;;;;;;;;2039005;29;20304;-87
2023/01/03 00:53:36;;;;;;;;;;;;;;;;;;2039466;29;20125;-87
2023/01/03 00:54:36;;;;;;;43.90;25.38;;;;;;;;;;2031376;29;19922;-87
2023/01/03 00:55:37;;;;;;;;;;;;;;;;;;2044619;29;20040;-87
2023/01/03 00:56:39;;;;;;;41.10;21.53;;;;;;;;;;2053783;29;19922;-87
2023/01/03 00:57:40;;;;;;;42.67;23.20;;;;;;;;;;2040562;29;20031;-87
2023/01/03 00:58:40;;;;;;;;;;;;;;;;;;2039407;29;20491;-87
2023/01/03 00:59:41;;;;;;;42.10;22.40;;;;;;;;;;2038714;28;19932;-87
2023/01/03 01:00:41;;;;;;;;;;;;;;;;;;2039289;29;20357;-88
2023/01/03 01:01:44;;;;;;;32.60;19.85;;;;;;;;;;2047189;28;19964;-88
2023/01/03 01:02:44;;;;;;;46.05;23.88;;;;;;;;;;1697331;28;10244420;-88
2023/01/03 01:03:47;;;;;;;;;;;;;;;;;;2047724;29;20023;-87
2023/01/03 01:04:47;;;;;;;38.10;21.65;;;;;;;;;;2038819;29;19934;-87
2023/01/03 01:05:47;;;;;;;;;;;;;;;;;;2039036;29;20055;-88
2023/01/03 01:06:53;;;;;;;36.30;20.50;;;;;;;;;;2046621;29;19933;-88
2023/01/03 01:07:54;;;;;;;44.17;24.52;;;;;;;;;;2038784;29;20417;-88
2023/01/03 01:08:58;;;;;;;43.00;25.52;;;;;;;;;;2038647;29;20024;-86
2023/01/03 01:09:58;;;;;;;42.17;26.05;;;;;;;;;;2047313;28;20472;-86
2023/01/03 01:11:01;;;;;;;;;;;;;;;;;;2038986;29;20272;-88
2023/01/03 01:12:03;;;;;;;41.10;23.23;;;;;;;;;;2039031;29;20055;-87
2023/01/03 01:13:03;;;;;;;49.25;25.60;;;;;;;;;;2038773;29;20540;-87
2023/01/03 01:14:18;;;;;;;;;;;;;;;;;;2039174;29;20035;-87
2023/01/03 01:15:19;;;;;;;45.45;25.38;;;;;;;;;;2038910;29;19978;-87
2023/01/03 01:16:21;;;;;;;;;;;;;;;;;;2039315;29;20040;-87
2023/01/03 01:17:21;;;;;;;40.92;24.40;;;;;;;;;;2038701;29;19911;-87
2023/01/03 01:18:22;;;;;;;;;;;;;;;;;;2038941;29;20059;-87
2023/01/03 01:19:31;;;;;;;49.38;25.27;;;;;;;;;;2047482;29;19985;-87
2023/01/03 01:20:31;;;;;;;48.47;27.67;;;;;;;;;;2038570;29;20074;-87
2023/01/03 01:21:31;;;;;;;;;;;;;;;;;;2039249;29;20103;-86
2023/01/03 01:22:33;;;;;;;45.50;25.92;;;;;;;;;;2038584;29;19911;-87
2023/01/03 01:23:35;;;;;;;59.15;31.08;;;;;;;;;;2047056;29;20039;-87
2023/01/03 01:24:36;;;;;;;59.13;31.13;;;;;;;;;;2038418;29;20085;-87
2023/01/03 01:25:37;;;;;;;;;;;;;;;;;;2039212;29;20032;-86
2023/01/03 01:26:38;;;;;;;53.33;27.27;;;;;;;;;;2046372;28;19925;-88
2023/01/03 01:27:38;;;;;;;;;;;;;;;;;;2039148;29;20078;-87
2023/01/03 01:28:39;;;;;;;41.17;21.40;;;;;;;;;;2038653;29;19911;-88
2023/01/03 01:29:39;;;;;;;;;;;;;;;;;;2039250;29;20034;-86
2023/01/03 01:30:39;;;;;;;42.10;23.23;;;;;;;;;;2030773;29;19915;-86
2023/01/03 01:31:40;;;;;;;;;;;;;;;;;;2031118;29;20036;-87
2023/01/03 01:32:40;;;;;;;36.50;20.80;;;;;;;;;;2038455;29;20017;-87
2023/01/03 01:33:41;;;;;;;;;;;;;;;;;;2038938;29;20595;-87
2023/01/03 01:34:41;;;;;;;37.15;22.65;;;;;;;;;;2038667;29;19911;-88
2023/01/03 01:35:42;;;;;;;;;;;;;;;;;;2039288;29;20068;-86
2023/01/03 01:36:43;;;;;;;40.17;22.08;;;;;;;;;;2038633;29;20009;-87
2023/01/03 01:37:43;;;;;;;52.63;26.88;;;;;;;;;;2038600;29;20254;-87
2023/01/03 01:38:44;;;;;;;;;;;;;;;;;;2047744;29;20434;-87
2023/01/03 01:39:45;;;;;;;42.53;26.57;;;;;;;;;;2038671;29;19918;-87
2023/01/03 01:40:45;;;;;;;;;;;;;;;;;;2039084;29;20280;-87
2023/01/03 01:45:04;;;;;;;54.70;29.52;;;;;;;;;;2047428;29;20283;-87
2023/01/03 01:46:16;;;;;;;49.13;26.48;;;;;;;;;;2038374;29;20034;-86
2023/01/03 01:47:34;;;;;;;52.53;27.77;;;;;;;;;;2040088;29;20119;-87
2023/01/03 01:48:34;;;;;;;51.03;28.48;;;;;;;;;;2047183;29;20453;-87
2023/01/03 01:49:35;;;;;;;;;;;;;;;;;;2047388;28;20023;-87
2023/01/03 01:50:49;;;;;;;45.55;26.15;;;;;;;;;;2046925;29;19933;-87
2023/01/03 01:51:50;;;;;;;50.88;28.33;;;;;;;;;;2038320;29;20133;-87
2023/01/03 01:52:58;;;;;;;;;;;;;;;;;;2038958;29;20431;-87
2023/01/03 01:54:01;;;;;;;53.17;25.52;;;;;;;;;;2047102;28;20049;-87
2023/01/03 01:55:05;;;;;;;55.72;30.13;;;;;;;;;;2047246;29;20039;-87
2023/01/03 01:56:10;;;;;;;49.08;27.95;;;;;;;;;;2046958;29;20045;-87
2023/01/03 01:57:14;;;;;;;54.70;28.55;;;;;;;;;;2038212;29;20351;-87
2023/01/03 01:58:15;;;;;;;55.60;28.58;;;;;;;;;;2031042;29;20032;-86
2023/01/03 01:59:16;;;;;;;43.92;27.20;;;;;;;;;;2030478;29;20113;-86
2023/01/03 02:00:16;;;;;;;;;;;;;;;;;;2038818;29;20450;-87
2023/01/03 02:01:19;;;;;;;46.73;25.53;;;;;;;;;;2046891;29;20370;-86
2023/01/03 02:02:21;;;;;;;44.25;25.02;;;;;;;;;;2038134;29;20027;-87
2023/01/03 02:03:21;;;;;;;46.72;26.25;;;;;;;;;;2030652;29;20032;-87
2023/01/03 02:04:24;;;;;;;;;;;;;;;;;;2031996;29;20063;-87
2023/01/03 02:05:25;;;;;;;47.92;25.88;;;;;;;;;;2040249;29;19915;-87
2023/01/03 02:06:28;;;;;;;49.83;27.17;;;;;;;;;;2048169;29;20187;-87
2023/01/03 02:07:28;;;;;;;49.15;27.42;;;;;;;;;;2039771;29;20091;-87
2023/01/03 02:08:29;;;;;;;;;;;;;;;;;;2040211;29;20047;-87
2023/01/03 02:09:32;;;;;;;48.70;27.83;;;;;;;;;;2039914;29;20005;-87
2023/01/03 02:10:52;;;;;;;49.22;26.00;;;;;;;;;;2049788;28;20094;-87
2023/01/03 02:13:28;;;;;;;49.95;26.23;;;;;;;;;;2048735;29;20047;-87
2023/01/03 02:14:43;;;;;;;46.40;25.45;;;;;;;;;;2039905;29;20099;-86
2023/01/03 02:16:10;;;;;;;43.33;25.20;;;;;;;;;;2041752;29;20368;-87
2023/01/03 02:17:26;;;;;;;40.17;24.88;;;;;;;;;;2048388;28;20371;-87
2023/01/03 02:19:04;;;;;;;40.75;23.10;;;;;;;;;;1706723;29;10001332;-87
2023/01/03 02:20:22;;;;;;;43.85;24.75;;;;;;;;;;2048186;29;20521;-87
2023/01/03 02:21:31;;;;;;;43.03;23.83;;;;;;;;;;2041327;29;20123;-86
2023/01/03 02:22:53;;;;;;;39.45;22.15;;;;;;;;;;2040871;29;20512;-87
2023/01/03 02:24:20;;;;;;;39.50;22.30;;;;;;;;;;2046180;28;20059;-87
2023/01/03 02:25:35;;;;;;;41.10;22.38;;;;;;;;;;2039618;29;20028;-87
2023/01/03 02:26:50;;;;;;;46.75;22.98;;;;;;;;;;2033524;29;20051;-87
2023/01/03 02:28:27;;;;;;;42.28;21.98;;;;;;;;;;2033535;29;20016;-87
2023/01/03 02:29:39;;;;;;;34.63;20.63;;;;;;;;;;2036445;29;20034;-87
2023/01/03 02:30:47;;;;;;;39.15;21.05;;;;;;;;;;2041233;29;20502;-87
2023/01/03 02:32:02;;;;;;;42.15;20.83;;;;;;;;;;2039587;29;20023;-87
2023/01/03 02:33:10;;;;;;;40.10;22.17;;;;;;;;;;2041770;29;20034;-87
2023/01/03 02:34:39;;;;;;;41.63;22.65;;;;;;;;;;2039571;29;20437;-87
2023/01/03 02:35:46;;;;;;;34.63;21.17;;;;;;;;;;2043482;29;20051;-87
2023/01/03 02:37:05;;;;;;;39.86;21.47;;;;;;;;;;1543899;28;10002935;-87
2023/01/03 02:38:37;;;;;;;39.83;22.58;;;;;;;;;;2039640;29;20031;-87
2023/01/03 02:39:47;;;;;;;39.90;21.55;;;;;;;;;;2047677;29;20152;-87
2023/01/03 02:41:01;;;;;;;43.33;25.13;;;;;;;;;;2048173;29;20087;-87
2023/01/03 02:43:49;;;;;;;53.42;28.83;;;;;;;;;;2045019;28;20234;-87
2023/01/03 02:45:06;;;;;;;53.92;27.75;;;;;;;;;;2048119;29;20049;-87
2023/01/03 02:46:14;;;;;;;56.75;28.25;;;;;;;;;;2039464;29;20153;-87
2023/01/03 02:47:18;;;;;;;50.95;27.40;;;;;;;;;;2040511;29;20118;-87
2023/01/03 02:48:37;;;;;;;50.38;28.27;;;;;;;;;;2048157;28;20479;-87
2023/01/03 02:49:49;;;;;;;51.58;28.40;;;;;;;;;;2040438;29;20169;-86
2023/01/03 02:50:53;;;;;;;56.80;29.02;;;;;;;;;;2042922;29;20078;-87
2023/01/03 02:51:58;;;;;;;58.53;31.05;;;;;;;;;;2040121;29;20020;-87
2023/01/03 02:53:04;;;;;;;55.22;29.98;;;;;;;;;;2032011;29;20282;-87
2023/01/03 02:54:10;;;;;;;62.58;32.15;;;;;;;;;;2032399;29;20035;-87
2023/01/03 02:55:18;;;;;;;61.00;31.15;;;;;;;;;;2039958;29;20035;-87
2023/01/03 02:56:27;;;;;;;63.77;31.90;;;;;;;;;;1699356;28;10002442;-87
2023/01/03 02:57:38;;;;;;;57.70;31.20;;;;;;;;;;2023937;29;20136;-87
2023/01/03 02:58:42;;;;;;;55.55;29.58;;;;;;;;;;2029929;29;20038;-87
2023/01/03 02:59:54;;;;;;;49.35;30.88;;;;;;;;;;2031918;29;20083;-87
2023/01/03 03:00:58;;;;;;;53.88;29.45;;;;;;;;;;2041091;29;20052;-87
2023/01/03 03:02:01;;;;;;;53.88;30.38;;;;;;;;;;2039385;29;20513;-87
2023/01/03 03:03:08;;;;;;;58.15;31.50;;;;;;;;;;2031607;29;20424;-87
2023/01/03 03:04:08;;;;;;;58.53;30.35;;;;;;;;;;2042627;28;20031;-86
2023/01/03 03:05:11;;;;;;;;;;;;;;;;;;2039825;29;20114;-87
2023/01/03 03:06:56;;;;;;;51.88;29.40;;;;;;;;;;2039487;29;19911;-87
2023/01/03 03:07:56;;;;;;;43.33;23.98;;;;;;;;;;2034203;29;20123;-86
2023/01/03 03:08:57;;;;;;;;;;;;;;;;;;2034462;29;20017;-86
2023/01/03 03:14:21;;;;;;;56.70;30.10;;;;;;;;;;2048645;29;20067;-86
2023/01/03 03:15:29;;;;;;;53.00;29.70;;;;;;;;;;2039284;29;20031;-86
2023/01/03 03:16:46;;;;;;;55.30;29.48;;;;;;;;;;2032354;29;20155;-86
2023/01/03 03:17:48;;;;;;;55.28;29.90;;;;;;;;;;2041693;29;20034;-86
2023/01/03 03:19:00;;;;;;;54.08;30.67;;;;;;;;;;2047893;29;20154;-87
2023/01/03 03:25:41;;;;;;;52.97;26.05;;;;;;;;;;2048153;28;20035;-87
2023/01/03 03:26:43;;;;;;;52.42;28.52;;;;;;;;;;2042953;29;20032;-88
2023/01/03 03:29:11;;;;;;;54.58;28.45;;;;;;;;;;2058231;28;20027;-87
2023/01/03 03:30:16;;;;;;;53.75;29.88;;;;;;;;;;2048732;28;20099;-87
2023/01/03 03:31:43;;;;;;;54.67;31.42;;;;;;;;;;2043464;28;20046;-87
2023/01/03 03:32:45;;;;;;;53.40;29.80;;;;;;;;;;2037272;29;20117;-87
2023/01/03 03:33:52;;;;;;;49.58;29.83;;;;;;;;;;2039493;29;20042;-86
2023/01/03 03:34:56;;;;;;;55.45;30.92;;;;;;;;;;2048105;29;20022;-87
2023/01/03 03:36:04;;;;;;;61.10;29.70;;;;;;;;;;2039116;29;20039;-87
2023/01/03 03:37:13;;;;;;;59.47;31.60;;;;;;;;;;2040495;29;20046;-86
2023/01/03 03:38:19;;;;;;;61.03;31.77;;;;;;;;;;2038952;29;20256;-87
2023/01/03 03:45:43;;;;;;;38.88;21.38;;;;;;;;;;2050515;28;20039;-86
2023/01/03 03:46:49;;;;;;;53.33;28.08;;;;;;;;;;2047714;29;20031;-86
2023/01/03 03:47:59;;;;;;;54.65;28.42;;;;;;;;;;2047790;29;20038;-87
2023/01/03 03:50:32;;;;;;;46.03;24.80;;;;;;;;;;2042806;29;20035;-86
2023/01/03 03:51:36;;;;;;;45.20;24.88;;;;;;;;;;2038995;29;20398;-87
2023/01/03 03:52:37;;;;;;;53.78;27.83;;;;;;;;;;2039278;28;20034;-87
2023/01/03 03:53:41;;;;;;;46.45;27.40;;;;;;;;;;2046986;29;20031;-87
2023/01/03 03:54:49;;;;;;;47.92;27.13;;;;;;;;;;2038960;29;20534;-87
2023/01/03 03:55:59;;;;;;;55.65;27.83;;;;;;;;;;2040344;29;20031;-87
2023/01/03 03:57:16;;;;;;;50.92;26.40;;;;;;;;;;2038946;29;20027;-87
2023/01/03 03:58:21;;;;;;;49.33;27.50;;;;;;;;;;2039065;29;20027;-87
2023/01/03 03:59:25;;;;;;;45.90;26.73;;;;;;;;;;2039349;29;20094;-87
2023/01/03 04:00:31;;;;;;;47.72;25.38;;;;;;;;;;2039063;29;20418;-86
2023/01/03 04:01:34;;;;;;;45.83;27.20;;;;;;;;;;2039614;29;20028;-86
2023/01/03 04:02:36;;;;;;;51.10;27.15;;;;;;;;;;2047798;29;20035;-88
2023/01/03 04:03:39;;;;;;;48.72;26.77;;;;;;;;;;2047947;29;20107;-86
2023/01/03 04:04:45;;;;;;;47.22;26.08;;;;;;;;;;1691320;29;10217980;-87
2023/01/03 04:05:51;;;;;;;43.10;25.70;;;;;;;;;;2031783;29;20027;-87
2023/01/03 04:06:52;;;;;;;46.55;23.10;;;;;;;;;;2039775;29;20066;-87
2023/01/03 04:07:52;;;;;;;;;;;;;;;;;;2039348;29;20114;-87
2023/01/03 04:08:53;;;;;;;27.10;15.87;;;;;;;;;;2038941;29;19919;-87
2023/01/03 04:09:53;;;;;;;;;;;;;;;;;;2039388;29;20023;-86
2023/01/03 04:11:04;;;;;;;24.55;15.88;;;;;;;;;;2046953;29;19934;-87
2023/01/03 04:12:04;;;;;;;30.15;17.00;;;;;;;;;;2039111;29;20035;-88
2023/01/03 04:13:05;;;;;;;;;;;;;;;;;;2031405;29;20055;-87
2023/01/03 04:14:06;;;;;;;27.60;17.07;;;;;;;;;;2038755;29;20005;-87
2023/01/03 04:15:06;;;;;;;;;;;;;;;;;;2047411;29;20035;-86
2023/01/03 04:16:07;;;;;;;22.07;14.37;;;;;;;;;;2038736;29;19922;-88
2023/01/03 04:17:07;;;;;;;32.20;17.17;;;;;;;;;;2038843;29;20288;-87
2023/01/03 04:18:07;;;;;;;;;;;;;;;;;;2039222;29;20495;-86
2023/01/03 04:19:08;;;;;;;22.67;15.30;;;;;;;;;;2038836;29;19911;-86
2023/01/03 04:20:09;;;;;;;34.80;18.63;;;;;;;;;;2030959;29;20111;-87
2023/01/03 04:21:10;;;;;;;34.35;20.73;;;;;;;;;;2031246;29;20032;-87
2023/01/03 04:22:10;;;;;;;;;;;;;;;;;;2039139;29;20507;-86
2023/01/03 04:23:10;;;;;;;24.73;15.98;;;;;;;;;;2038766;29;19963;-87
2023/01/03 04:24:11;;;;;;;;;;;;;;;;;;2039492;29;20036;-85
2023/01/03 04:25:11;;;;;;;16.55;12.57;;;;;;;;;;2038946;29;19910;-87
2023/01/03 04:26:11;;;;;;;;;;;;;;;;;;2047940;28;20351;-87
2023/01/03 04:27:12;;;;;;;33.10;15.77;;;;;;;;;;2047236;29;20360;-87
2023/01/03 04:28:12;;;;;;;;;;;;;;;;;;2039565;29;20083;-87
2023/01/03 04:29:12;;;;;;;23.40;13.00;;;;;;;;;;2031052;29;19953;-86
2023/01/03 04:30:13;;;;;;;;;;;;;;;;;;2039204;29;20031;-87
2023/01/03 04:31:13;;;;;;;24.97;13.47;;;;;;;;;;2030939;29;19915;-87
2023/01/03 04:32:13;;;;;;;;;;;;;;;;;;2039212;29;20036;-87
2023/01/03 04:33:14;;;;;;;20.27;13.60;;;;;;;;;;2038528;29;19977;-87
2023/01/03 04:34:14;;;;;;;;;;;;;;;;;;2031443;29;20118;-87
2023/01/03 04:35:15;;;;;;;24.63;14.77;;;;;;;;;;2038732;29;20389;-87
2023/01/03 04:36:17;;;;;;;;;;;;;;;;;;2039119;29;20083;-86
2023/01/03 04:37:17;;;;;;;24.80;15.48;;;;;;;;;;2038763;29;19911;-86
2023/01/03 04:38:17;;;;;;;;;;;;;;;;;;2040005;29;20065;-86
2023/01/03 04:39:18;;;;;;;20.00;13.40;;;;;;;;;;2046477;28;20099;-87
2023/01/03 04:40:18;;;;;;;31.83;16.05;;;;;;;;;;2046522;29;20486;-87
2023/01/03 04:41:19;;;;;;;39.40;20.27;;;;;;;;;;2046658;29;20023;-86
2023/01/03 04:44:57;;;;;;;27.63;16.90;;;;;;;;;;2047652;29;20409;-87
2023/01/03 04:45:57;;;;;;;;;;;;;;;;;;2039192;29;20028;-86
2023/01/03 04:46:57;;;;;;;27.17;15.95;;;;;;;;;;2038750;29;19911;-87
2023/01/03 04:47:58;;;;;;;;;;;;;;;;;;2047778;29;20169;-86
2023/01/03 04:48:59;;;;;;;23.58;15.77;;;;;;;;;;2047207;29;20382;-86
2023/01/03 04:49:59;;;;;;;;;;;;;;;;;;2039086;29;20047;-87
2023/01/03 04:50:59;;;;;;;24.77;16.00;;;;;;;;;;2038741;29;20290;-86
2023/01/03 04:52:00;;;;;;;;;;;;;;;;;;2047728;28;20023;-86
2023/01/03 04:53:00;;;;;;;25.90;15.03;;;;;;;;;;2038629;29;19911;-85
2023/01/03 04:54:01;;;;;;;;;;;;;;;;;;2039152;29;20527;-86
2023/01/03 04:55:01;;;;;;;27.10;16.45;;;;;;;;;;2038798;29;19919;-85
2023/01/03 04:56:02;;;;;;;31.70;17.95;;;;;;;;;;2038620;29;20110;-87
2023/01/03 04:57:02;;;;;;;;;;;;;;;;;;2031314;29;20028;-86
2023/01/03 04:58:03;;;;;;;30.83;16.67;;;;;;;;;;2038669;29;20374;-86
2023/01/03 04:59:03;;;;;;;;;;;;;;;;;;2047729;29;20031;-84
2023/01/03 05:00:05;;;;;;;30.00;15.67;;;;;;;;;;2047390;28;19914;-87
2023/01/03 05:01:09;;;;;;;36.60;20.85;;;;;;;;;;2038524;29;20070;-87
2023/01/03 05:02:18;;;;;;;46.77;24.20;;;;;;;;;;1983397;29;10195753;-87
2023/01/03 05:03:18;;;;;;;45.38;24.67;;;;;;;;;;2031941;29;20563;-86
2023/01/03 05:04:18;;;;;;;;;;;;;;;;;;2031103;29;20153;-86
2023/01/03 05:05:19;;;;;;;32.35;17.23;;;;;;;;;;2030779;29;19951;-87
2023/01/03 05:06:19;;;;;;;;;;;;;;;;;;2031118;29;20035;-86
2023/01/03 05:07:19;;;;;;;33.42;18.40;;;;;;;;;;2038782;29;20428;-86
2023/01/03 05:08:20;;;;;;;;;;;;;;;;;;2047692;29;20089;-85
2023/01/03 05:09:21;;;;;;;34.00;17.98;;;;;;;;;;2047400;29;19910;-85
2023/01/03 05:10:21;;;;;;;35.47;19.80;;;;;;;;;;2047017;29;20038;-86
2023/01/03 05:11:21;;;;;;;;;;;;;;;;;;2047633;29;20328;-86
2023/01/03 05:12:22;;;;;;;33.53;19.77;;;;;;;;;;2038585;29;19910;-86
2023/01/03 05:13:22;;;;;;;;;;;;;;;;;;2031190;29;20190;-86
2023/01/03 05:14:22;;;;;;;27.83;15.23;;;;;;;;;;2038640;29;19953;-86
2023/01/03 05:15:23;;;;;;;40.53;22.95;;;;;;;;;;2038621;29;20227;-86
2023/01/03 05:16:23;;;;;;;;;;;;;;;;;;2039019;29;20040;-85
2023/01/03 05:17:23;;;;;;;34.75;17.60;;;;;;;;;;2047211;29;19914;-86
2023/01/03 05:18:24;;;;;;;;;;;;;;;;;;2047618;29;20043;-86
2023/01/03 05:19:24;;;;;;;33.67;19.52;;;;;;;;;;2038607;29;19915;-86
2023/01/03 05:25:49;;;;;;;39.58;23.98;;;;;;;;;;2047264;29;20103;-87
2023/01/03 05:26:51;;;;;;;47.22;31.52;;;;;;;;;;2046924;28;20039;-87
2023/01/03 05:27:51;;;;;;;49.78;25.83;;;;;;;;;;2038570;29;20019;-86
2023/01/03 05:28:53;;;;;;;;;;;;;;;;;;2039096;29;20090;-86
2023/01/03 05:29:55;;;;;;;33.10;18.35;;;;;;;;;;2046868;29;19962;-86
2023/01/03 05:30:59;;;;;;;48.17;23.80;;;;;;;;;;2038277;29;20087;-86
2023/01/03 05:31:59;;;;;;;45.10;25.45;;;;;;;;;;2038695;29;20586;-87
2023/01/03 05:33:00;;;;;;;;;;;;;;;;;;2047196;29;20047;-86
2023/01/03 05:34:00;;;;;;;29.92;18.33;;;;;;;;;;2038038;29;19926;-86
2023/01/03 05:35:01;;;;;;;43.90;22.27;;;;;;;;;;2038412;29;20035;-86
2023/01/03 05:36:01;;;;;;;;;;;;;;;;;;2047644;28;20478;-86
2023/01/03 05:37:01;;;;;;;30.17;17.27;;;;;;;;;;2038671;29;20105;-86
2023/01/03 05:38:01;;;;;;;;;;;;;;;;;;2031031;29;20535;-86
2023/01/03 05:39:03;;;;;;;38.35;18.63;;;;;;;;;;2038943;29;19910;-86
2023/01/03 05:40:03;;;;;;;39.88;22.85;;;;;;;;;;2039902;29;20039;-86
2023/01/03 05:41:04;;;;;;;;;;;;;;;;;;2040424;29;20293;-85
2023/01/03 05:42:05;;;;;;;39.43;20.00;;;;;;;;;;2040159;29;19914;-85
2023/01/03 05:43:05;;;;;;;;;;;;;;;;;;2049089;29;20678;-86
2023/01/03 05:44:06;;;;;;;35.20;19.77;;;;;;;;;;2048014;28;19975;-87
2023/01/03 05:45:07;;;;;;;;;;;;;;;;;;2040391;29;20049;-86
2023/01/03 05:46:07;;;;;;;45.25;18.67;;;;;;;;;;2039872;29;19915;-86
2023/01/03 05:47:07;;;;;;;;;;;;;;;;;;2048783;29;20061;-85
2023/01/03 05:48:08;;;;;;;32.38;18.40;;;;;;;;;;2043990;29;19907;-87
2023/01/03 05:49:08;;;;;;;;;;;;;;;;;;2059043;28;20042;-85
2023/01/03 05:50:09;;;;;;;34.88;19.38;;;;;;;;;;2058664;28;19981;-86
2023/01/03 05:51:09;;;;;;;;;;;;;;;;;;2056495;28;20035;-85
2023/01/03 05:52:09;;;;;;;32.90;17.67;;;;;;;;;;2050550;28;20337;-86
2023/01/03 05:53:10;;;;;;;;;;;;;;;;;;2041769;29;20169;-86
2023/01/03 05:54:15;;;;;;;36.42;20.88;;;;;;;;;;2032451;29;19918;-87
2023/01/03 05:55:15;;;;;;;41.75;25.30;;;;;;;;;;2040854;29;20040;-86
2023/01/03 05:56:16;;;;;;;;;;;;;;;;;;2040801;29;20037;-86
2023/01/03 05:57:16;;;;;;;39.43;20.67;;;;;;;;;;2040257;29;19911;-88
2023/01/03 05:58:16;;;;;;;53.72;26.67;;;;;;;;;;2040131;29;20023;-86
2023/01/03 05:59:17;;;;;;;;;;;;;;;;;;2049402;29;20031;-86
2023/01/03 06:00:18;;;;;;;38.35;21.02;;;;;;;;;;2040511;29;19957;-87
2023/01/03 06:01:18;;;;;;;54.63;27.70;;;;;;;;;;2040456;29;20031;-85
2023/01/03 06:02:19;;;;;;;;;;;;;;;;;;2049538;28;20410;-86
2023/01/03 06:03:19;;;;;;;36.50;20.73;;;;;;;;;;2040530;29;20410;-85
2023/01/03 06:04:20;;;;;;;;;;;;;;;;;;2033042;29;20032;-85
2023/01/03 06:05:20;;;;;;;30.17;18.17;;;;;;;;;;2040568;29;20302;-85
2023/01/03 06:06:21;;;;;;;;;;;;;;;;;;2048532;29;20069;-85
2023/01/03 06:07:21;;;;;;;32.73;19.47;;;;;;;;;;2047795;28;19954;-85
2023/01/03 06:08:21;;;;;;;;;;;;;;;;;;2054029;29;20402;-85
2023/01/03 06:09:21;;;;;;;34.15;18.50;;;;;;;;;;2058642;28;19982;-85
2023/01/03 06:10:22;;;;;;;38.15;22.73;;;;;;;;;;2050020;29;20103;-86
2023/01/03 06:11:22;;;;;;;;;;;;;;;;;;2045388;29;20530;-85
2023/01/03 06:12:26;;;;;;;37.28;21.20;;;;;;;;;;2042171;29;19914;-85
2023/01/03 06:13:26;;;;;;;51.40;30.42;;;;;;;;;;2041211;29;20031;-86
2023/01/03 06:14:27;;;;;;;;;;;;;;;;;;2041391;29;20036;-84
2023/01/03 06:15:27;;;;;;;39.43;21.40;;;;;;;;;;2040447;29;20001;-85
2023/01/03 06:18:01;;;;;;;40.25;21.08;;;;;;;;;;2048324;28;19997;-85
2023/01/03 06:19:05;;;;;;;44.47;22.88;;;;;;;;;;2039431;29;20543;-85
2023/01/03 06:20:08;;;;;;;47.45;26.45;;;;;;;;;;2040053;29;20067;-85
2023/01/03 06:21:08;;;;;;;48.85;29.85;;;;;;;;;;2031864;29;20024;-85
2023/01/03 06:22:09;;;;;;;;;;;;;;;;;;2039902;29;20027;-85
2023/01/03 06:23:09;;;;;;;39.92;24.70;;;;;;;;;;2048585;29;19922;-85
2023/01/03 06:24:09;;;;;;;;;;;;;;;;;;2040456;29;20368;-85
2023/01/03 06:25:10;;;;;;;39.37;21.87;;;;;;;;;;2039943;29;20384;-86
2023/01/03 06:26:10;;;;;;;;;;;;;;;;;;2048568;29;20082;-84
2023/01/03 06:27:11;;;;;;;38.45;21.52;;;;;;;;;;2048469;29;19910;-86
2023/01/03 06:28:11;;;;;;;;;;;;;;;;;;2040100;29;20518;-86
2023/01/03 06:29:11;;;;;;;35.33;21.38;;;;;;;;;;2039464;29;19919;-86
2023/01/03 06:30:14;;;;;;;52.03;28.10;;;;;;;;;;2039368;29;20298;-86
2023/01/03 06:31:14;;;;;;;52.25;28.83;;;;;;;;;;2039427;29;20105;-86
2023/01/03 06:32:15;;;;;;;;;;;;;;;;;;2039995;29;20490;-86
2023/01/03 06:33:15;;;;;;;35.93;20.73;;;;;;;;;;2031469;29;19970;-85
2023/01/03 06:34:16;;;;;;;49.55;29.75;;;;;;;;;;2039647;29;20450;-84
2023/01/03 06:35:16;;;;;;;;;;;;;;;;;;2047610;29;20027;-85
2023/01/03 06:36:19;;;;;;;40.73;23.27;;;;;;;;;;2046995;29;20042;-85
2023/01/03 06:37:19;;;;;;;46.22;28.27;;;;;;;;;;2049420;29;20373;-84
2023/01/03 06:38:19;;;;;;;;;;;;;;;;;;2048852;29;20060;-87
2023/01/03 06:39:20;;;;;;;44.83;25.00;;;;;;;;;;2040134;29;19923;-86
2023/01/03 06:40:20;;;;;;;53.45;30.45;;;;;;;;;;2039377;29;20028;-87
2023/01/03 06:41:20;;;;;;;;;;;;;;;;;;2048151;29;20114;-87
2023/01/03 06:42:41;;;;;;;38.30;25.08;;;;;;;;;;2046935;28;20689;-86
2023/01/03 06:43:41;;;;;;;51.50;30.17;;;;;;;;;;2047429;29;20027;-87
2023/01/03 06:44:42;;;;;;;;;;;;;;;;;;2039792;29;20110;-87
2023/01/03 06:53:48;;;;;;;107.20;50.08;;;;;;;;;;2048109;29;20138;-87
2023/01/03 06:54:48;;;;;;;;;;;;;;;;;;2039681;29;20511;-86
2023/01/03 06:55:49;;;;;;;80.10;40.47;;;;;;;;;;2039345;29;19934;-86
2023/01/03 06:56:50;;;;;;;;;;;;;;;;;;2048536;29;20059;-87
2023/01/03 06:57:51;;;;;;;81.53;38.95;;;;;;;;;;1698428;28;10232978;-86
2023/01/03 06:58:51;;;;;;;;;;;;;;;;;;2048527;29;20098;-86
2023/01/03 06:59:52;;;;;;;89.13;42.13;;;;;;;;;;2047770;29;19910;-86
2023/01/03 07:00:53;;;;;;;;;;;;;;;;;;2048322;28;20050;-85
2023/01/03 07:01:54;;;;;;;82.63;44.60;;;;;;;;;;2048986;29;20068;-87
2023/01/03 07:02:55;;;;;;;110.93;55.90;;;;;;;;;;2039902;29;20131;-85
2023/01/03 07:03:55;;;;;;;117.25;60.83;;;;;;;;;;2039252;29;20028;-86
2023/01/03 07:04:55;;;;;;;;;;;;;;;;;;2047749;29;20027;-86
2023/01/03 07:05:56;;;;;;;96.40;55.03;;;;;;;;;;2047244;29;19922;-86
2023/01/03 07:06:56;;;;;;;106.07;58.67;;;;;;;;;;2031676;29;20039;-85
2023/01/03 07:07:56;;;;;;;;;;;;;;;;;;2040009;29;20027;-85
2023/01/03 07:08:57;;;;;;;108.43;56.42;;;;;;;;;;2048193;29;19985;-86